Time;durP1;ratioP1;P1;durP2;ratioP2;P2;SDS_P1;SDS_P2;PMS_P1;PMS_P2;Temp;Humidity;BMP_temperature;BMP_pressure;BME280_temperature;BME280_humidity;BME280_pressure;Samples;Min_cycle;Max_cycle;Signal;HPM_P1;HPM_P2
2022/12/25 00:01:50;;;;;;;28.50;7.23;;;;;;;16.65;100.00;101564.25;4886078;29;20483;-94
2022/12/25 00:04:36;;;;;;;29.60;8.10;;;;;;;16.77;100.00;101574.41;4863372;29;20441;-92
2022/12/25 00:07:07;;;;;;;39.23;11.53;;;;;;;16.66;100.00;101561.28;4886675;29;20878;-90
2022/12/25 00:09:44;;;;;;;41.17;14.70;;;;;;;16.80;100.00;101575.91;4902315;29;21030;-90
2022/12/25 00:12:21;;;;;;;29.77;9.30;;;;;;;16.76;100.00;101571.88;4918619;29;20445;-90
2022/12/25 00:14:51;;;;;;;31.53;10.13;;;;;;;16.78;100.00;101564.22;4901170;29;20511;-91
2022/12/25 00:17:19;;;;;;;33.13;6.07;;;;;;;16.78;100.00;101569.75;4887086;29;20453;-90
2022/12/25 00:19:47;;;;;;;24.40;5.73;;;;;;;16.79;100.00;101563.16;4903004;29;20444;-91
2022/12/25 00:22:23;;;;;;;27.23;8.30;;;;;;;16.75;100.00;101561.88;4900924;29;20459;-92
2022/12/25 00:24:51;;;;;;;33.23;8.40;;;;;;;16.75;100.00;101554.44;4902668;29;20448;-91
2022/12/25 00:27:19;;;;;;;33.63;9.13;;;;;;;16.77;100.00;101562.53;4870559;29;20857;-91
2022/12/25 00:29:54;;;;;;;24.47;8.80;;;;;;;16.78;100.00;101551.25;4883698;29;20545;-92
2022/12/25 00:32:45;;;;;;;29.07;7.40;;;;;;;16.84;100.00;101566.13;4879841;29;20450;-90
2022/12/25 00:35:55;;;;;;;26.70;8.10;;;;;;;16.84;100.00;101555.09;4880273;29;20490;-90
2022/12/25 00:38:33;;;;;;;30.07;9.70;;;;;;;16.85;100.00;101556.78;4899302;29;20458;-92
2022/12/25 00:45:06;;;;;;;26.20;7.97;;;;;;;16.83;100.00;101550.63;4902812;29;20460;-92
2022/12/25 00:48:06;;;;;;;34.60;9.00;;;;;;;16.83;100.00;101556.16;4880957;29;20465;-90
2022/12/25 00:50:42;;;;;;;26.47;8.63;;;;;;;16.81;100.00;101544.47;4880890;29;20469;-90
2022/12/25 00:53:17;;;;;;;31.93;9.00;;;;;;;16.77;100.00;101529.38;4867474;29;20525;-90
2022/12/25 00:56:02;;;;;;;25.30;8.17;;;;;;;16.77;100.00;101537.69;4886416;29;20476;-90
2022/12/25 00:58:32;;;;;;;43.37;10.37;;;;;;;16.76;100.00;101538.75;4854967;29;20568;-91
2022/12/25 01:01:04;;;;;;;27.00;10.07;;;;;;;16.78;100.00;101542.13;4848949;29;20942;-92
2022/12/25 01:03:51;;;;;;;28.77;11.40;;;;;;;16.79;100.00;101543.84;4875360;29;20451;-92
2022/12/25 01:06:18;;;;;;;37.90;10.50;;;;;;;16.74;100.00;101521.56;4863788;29;20470;-89
2022/12/25 01:11:49;;;;;;;31.47;9.40;;;;;;;16.74;100.00;101524.31;4873155;29;20537;-90
2022/12/25 01:14:52;;;;;;;37.77;10.80;;;;;;;16.72;100.00;101524.53;4879321;29;20466;-90
2022/12/25 01:17:34;;;;;;;30.10;11.17;;;;;;;16.70;100.00;101523.06;4883686;29;20454;-90
2022/12/25 01:20:25;;;;;;;22.63;9.47;;;;;;;16.68;100.00;101527.94;4877552;29;20461;-90
2022/12/25 01:22:55;;;;;;;29.63;9.60;;;;;;;16.65;100.00;101525.59;4879164;29;20514;-90
2022/12/25 01:25:25;;;;;;;25.03;9.30;;;;;;;16.67;100.00;101526.25;4892602;29;20461;-90
2022/12/25 01:27:56;;;;;;;46.73;18.87;;;;;;;16.66;100.00;101533.66;4863936;29;20454;-91
2022/12/25 01:30:53;;;;;;;63.83;27.40;;;;;;;16.71;100.00;101524.75;4849141;29;20875;-90
2022/12/25 01:33:26;;;;;;;37.77;15.10;;;;;;;16.71;100.00;101520.09;4885379;29;20452;-91
2022/12/25 01:35:59;;;;;;;27.40;11.70;;;;;;;16.63;100.00;101508.38;4886004;29;20473;-90
2022/12/25 01:38:36;;;;;;;27.70;10.50;;;;;;;16.69;100.00;101511.16;4869668;29;20451;-91
2022/12/25 01:41:37;;;;;;;35.80;11.37;;;;;;;16.68;100.00;101516.91;4885864;29;20959;-90
2022/12/25 01:44:35;;;;;;;37.30;11.37;;;;;;;16.68;100.00;101519.66;4893944;29;20489;-90
2022/12/25 01:47:19;;;;;;;29.50;11.27;;;;;;;16.65;100.00;101500.75;4901460;29;20485;-89
2022/12/25 01:50:14;;;;;;;38.83;12.27;;;;;;;16.65;100.00;101507.13;4871269;29;20457;-91
2022/12/25 01:53:15;;;;;;;40.17;12.60;;;;;;;16.65;100.00;101503.53;4848600;29;20447;-90
2022/12/25 01:55:45;;;;;;;42.73;14.83;;;;;;;16.62;100.00;101509.44;4882904;29;20493;-90
2022/12/25 01:58:42;;;;;;;40.93;13.40;;;;;;;16.63;100.00;101508.38;4883367;29;20887;-90
2022/12/25 02:01:58;;;;;;;36.80;13.93;;;;;;;16.66;100.00;101510.75;4848650;29;20462;-90
2022/12/25 02:04:39;;;;;;;38.90;14.80;;;;;;;16.61;100.00;101507.72;4878837;29;21041;-90
2022/12/25 02:07:16;;;;;;;47.40;14.43;;;;;;;16.64;100.00;101507.34;4849615;29;20485;-89
2022/12/25 02:13:31;;;;;;;29.27;13.07;;;;;;;16.62;100.00;101503.91;4916599;29;21011;-89
2022/12/25 02:19:51;;;;;;;33.50;12.70;;;;;;;16.63;100.00;101511.13;4907659;29;20519;-92
2022/12/25 02:23:16;;;;;;;42.60;11.23;;;;;;;16.63;100.00;101511.13;4902332;29;21062;-88
2022/12/25 02:26:23;;;;;;;30.50;12.23;;;;;;;16.55;100.00;101504.75;4880105;29;20450;-89
2022/12/25 02:29:04;;;;;;;34.00;11.30;;;;;;;16.63;100.00;101516.66;4872639;29;20439;-92
2022/12/25 02:31:40;;;;;;;25.80;10.90;;;;;;;16.50;100.00;101501.81;4872710;29;20520;-89
2022/12/25 02:34:19;;;;;;;36.07;11.00;;;;;;;16.62;100.00;101513.03;4872662;29;20480;-89
2022/12/25 02:36:53;;;;;;;29.50;10.50;;;;;;;16.68;100.00;101514.13;4871553;29;20466;-88
2022/12/25 02:39:56;;;;;;;32.90;11.53;;;;;;;16.69;100.00;101510.31;4882951;29;20424;-90
2022/12/25 03:07:31;;;;;;;38.90;12.30;;;;;;;16.76;100.00;101491.81;4866755;29;20471;-89
2022/12/25 03:13:13;;;;;;;40.40;14.40;;;;;;;16.81;100.00;101486.50;4861997;29;20454;-89
2022/12/25 03:18:35;;;;;;;34.93;13.00;;;;;;;16.76;100.00;101489.03;4865029;29;20820;-89
2022/12/25 03:27:11;;;;;;;50.17;13.07;;;;;;;16.71;100.00;101486.09;4906171;29;20469;-89
2022/12/25 03:33:08;;;;;;;39.23;14.47;;;;;;;16.71;100.00;101475.91;4876975;29;20457;-89
2022/12/25 03:36:21;;;;;;;47.00;14.73;;;;;;;16.70;100.00;101474.22;4882580;29;20840;-88
2022/12/25 04:36:42;;;;;;;34.27;11.00;;;;;;;16.89;100.00;101444.84;4854164;29;20490;-88
2022/12/25 04:39:36;;;;;;;33.83;10.50;;;;;;;16.95;100.00;101455.00;4870061;29;20449;-88
2022/12/25 04:42:05;;;;;;;33.70;9.60;;;;;;;16.93;100.00;101443.34;4886302;29;20536;-88
2022/12/25 04:45:21;;;;;;;44.27;9.40;;;;;;;16.96;100.00;101440.13;4869995;29;20460;-89
2022/12/25 04:48:20;;;;;;;38.73;10.30;;;;;;;16.97;100.00;101447.34;4917156;29;20455;-89
2022/12/25 04:54:34;;;;;;;33.10;10.20;;;;;;;16.98;100.00;101429.72;4909463;29;20436;-88
2022/12/25 04:57:33;;;;;;;36.43;9.07;;;;;;;17.03;100.00;101432.66;4852400;29;20835;-88
2022/12/25 05:00:05;;;;;;;35.27;9.23;;;;;;;17.00;100.00;101419.28;4897652;29;20465;-89
2022/12/25 05:02:38;;;;;;;36.40;8.10;;;;;;;16.99;100.00;101417.59;4932059;29;20456;-89
2022/12/25 05:05:28;;;;;;;28.27;8.57;;;;;;;17.03;100.00;101418.84;4900651;29;21015;-89
2022/12/25 05:07:56;;;;;;;37.83;7.93;;;;;;;17.00;100.00;101418.44;4886326;29;20464;-90
2022/12/25 05:10:38;;;;;;;28.90;8.20;;;;;;;17.00;100.00;101418.44;4854076;29;20466;-90
2022/12/25 05:13:11;;;;;;;37.20;8.70;;;;;;;16.98;100.00;101409.53;4864701;29;20450;-89
2022/12/25 05:16:11;;;;;;;24.93;7.70;;;;;;;16.96;100.00;101407.00;4834462;29;20841;-88
2022/12/25 05:18:47;;;;;;;27.03;8.33;;;;;;;16.92;100.00;101405.75;4871555;29;20518;-90
2022/12/25 05:21:29;;;;;;;37.13;9.50;;;;;;;16.91;100.00;101398.53;4882215;29;20819;-90
2022/12/25 05:24:06;;;;;;;46.60;8.73;;;;;;;16.89;100.00;101403.44;4864090;29;20451;-90
2022/12/25 05:26:43;;;;;;;31.13;8.73;;;;;;;16.88;100.00;101404.50;4861680;29;20867;-90
2022/12/25 05:29:17;;;;;;;41.27;8.30;;;;;;;16.86;100.00;101410.22;4866924;29;20448;-90
2022/12/25 05:31:50;;;;;;;39.97;7.80;;;;;;;16.83;100.00;101398.78;4867386;29;20452;-89
2022/12/25 05:34:22;;;;;;;50.17;8.70;;;;;;;16.87;100.00;101400.88;4864207;29;20538;-90
2022/12/25 05:36:51;;;;;;;38.50;9.70;;;;;;;16.88;100.00;101402.59;4897044;29;20473;-90
2022/12/25 05:39:23;;;;;;;36.07;8.80;;;;;;;16.88;100.00;101402.59;4895258;29;20438;-90
2022/12/25 05:42:04;;;;;;;41.17;8.60;;;;;;;16.87;100.00;101402.78;4867019;29;20450;-89
2022/12/25 05:44:39;;;;;;;31.07;8.43;;;;;;;16.88;100.00;101402.59;4851651;29;20443;-90
2022/12/25 05:47:15;;;;;;;22.40;6.83;;;;;;;16.87;100.00;101405.56;4866831;29;20429;-90
2022/12/25 05:49:51;;;;;;;43.70;8.17;;;;;;;16.88;100.00;101410.00;4849799;29;20450;-90
2022/12/25 05:52:34;;;;;;;29.87;7.37;;;;;;;16.88;100.00;101410.88;4849694;29;20453;-90
2022/12/25 05:55:46;;;;;;;38.20;7.13;;;;;;;16.88;100.00;101410.88;4867209;29;20445;-92
2022/12/25 06:01:40;;;;;;;39.80;7.27;;;;;;;16.91;100.00;101432.53;4898481;29;20453;-90
2022/12/25 06:04:15;;;;;;;42.10;10.57;;;;;;;16.92;100.00;101433.38;4866810;29;20454;-90
2022/12/25 06:06:43;;;;;;;40.50;8.17;;;;;;;16.83;100.00;101407.06;4863812;29;20521;-90
2022/12/25 06:09:27;;;;;;;38.87;7.87;;;;;;;16.91;100.00;101428.91;4897520;29;20445;-90
2022/12/25 06:11:58;;;;;;;35.10;7.30;;;;;;;16.85;100.00;101415.97;4864820;29;20945;-90
2022/12/25 06:14:48;;;;;;;37.27;7.33;;;;;;;16.92;100.00;101430.59;4866423;29;20442;-90
2022/12/25 06:17:26;;;;;;;31.80;7.53;;;;;;;16.87;100.00;101414.69;4898070;29;20490;-90
2022/12/25 06:20:07;;;;;;;28.70;6.83;;;;;;;16.91;100.00;101427.00;4866545;29;20449;-90
2022/12/25 06:22:55;;;;;;;44.57;7.17;;;;;;;16.91;100.00;101435.28;4881924;29;20441;-90
2022/12/25 06:25:31;;;;;;;26.10;6.03;;;;;;;16.89;100.00;101428.28;4882008;29;20456;-90
2022/12/25 06:28:00;;;;;;;47.37;7.97;;;;;;;16.88;100.00;101430.19;4866576;29;20449;-90
2022/12/25 06:30:42;;;;;;;33.90;7.40;;;;;;;16.89;100.00;101439.31;4879590;29;20494;-90
2022/12/25 06:33:20;;;;;;;31.30;7.10;;;;;;;16.81;100.00;101420.22;4867727;29;20441;-90
2022/12/25 06:35:48;;;;;;;20.70;5.80;;;;;;;16.83;100.00;101431.91;4852178;29;20555;-90
2022/12/25 06:38:34;;;;;;;30.50;6.67;;;;;;;16.78;100.00;101424.28;4854602;29;20569;-88
2022/12/25 06:41:19;;;;;;;31.70;6.83;;;;;;;16.83;100.00;101434.66;4882294;29;20461;-89
2022/12/25 06:44:12;;;;;;;34.53;7.00;;;;;;;16.82;100.00;101432.97;4897736;29;20445;-89
2022/12/25 06:46:51;;;;;;;27.80;6.90;;;;;;;16.77;100.00;101435.53;4897471;29;20457;-88
2022/12/25 06:52:41;;;;;;;34.37;5.60;;;;;;;16.81;100.00;101428.50;4898443;29;20823;-88
2022/12/25 06:55:10;;;;;;;33.77;7.17;;;;;;;16.75;100.00;101430.22;4884538;29;20803;-90
2022/12/25 06:57:40;;;;;;;34.10;6.97;;;;;;;16.83;100.00;101440.19;4899069;29;21001;-90
2022/12/25 07:00:29;;;;;;;22.00;6.00;;;;;;;16.83;100.00;101440.19;4877977;29;20458;-90
2022/12/25 07:02:58;;;;;;;35.67;7.93;;;;;;;16.79;100.00;101439.78;4901394;29;20441;-90
2022/12/25 07:08:55;;;;;;;43.50;7.47;;;;;;;16.79;100.00;101438.91;4915756;29;20489;-90
2022/12/25 07:11:23;;;;;;;33.10;6.37;;;;;;;16.77;100.00;101435.53;4888369;29;20445;-88
2022/12/25 07:14:02;;;;;;;42.13;8.53;;;;;;;16.81;100.00;101448.69;4901479;29;20831;-88
2022/12/25 07:16:49;;;;;;;37.73;7.80;;;;;;;16.81;100.00;101454.22;4888757;29;20994;-88
2022/12/25 07:19:35;;;;;;;28.07;7.10;;;;;;;16.77;100.00;101443.81;4888050;29;20544;-88
2022/12/25 07:22:21;;;;;;;40.87;8.53;;;;;;;16.79;100.00;101448.06;4874922;29;20970;-89
2022/12/25 07:25:08;;;;;;;45.47;7.53;;;;;;;16.80;100.00;101457.19;4888315;29;20456;-89
2022/12/25 07:28:04;;;;;;;29.93;6.77;;;;;;;16.81;100.00;101458.88;4873823;29;20457;-89
2022/12/25 07:30:34;;;;;;;40.20;6.90;;;;;;;16.74;100.00;101456.13;4900221;29;20956;-90
2022/12/25 07:33:48;;;;;;;36.47;6.80;;;;;;;16.81;100.00;101467.16;4883785;29;20450;-89
2022/12/25 07:36:22;;;;;;;39.13;6.70;;;;;;;16.74;100.00;101464.41;4895795;29;20461;-89
2022/12/25 07:39:26;;;;;;;35.07;6.83;;;;;;;16.80;100.00;101469.06;4872720;29;20438;-89
2022/12/25 07:41:54;;;;;;;36.23;6.17;;;;;;;16.79;100.00;101461.00;4903515;29;20507;-89
2022/12/25 07:44:47;;;;;;;32.37;6.83;;;;;;;16.83;100.00;101462.28;4876769;29;20951;-89
2022/12/25 07:47:33;;;;;;;34.47;7.40;;;;;;;16.82;100.00;101460.56;4899526;29;20441;-89
2022/12/25 07:50:20;;;;;;;28.80;6.20;;;;;;;16.86;100.00;101473.75;4870645;29;20449;-88
2022/12/25 07:52:49;;;;;;;32.63;7.00;;;;;;;16.85;100.00;101463.75;4874298;29;20506;-89
2022/12/25 07:55:37;;;;;;;37.53;7.20;;;;;;;16.87;100.00;101466.31;4884270;29;20457;-89
2022/12/25 07:58:19;;;;;;;43.40;7.03;;;;;;;16.83;100.00;101465.03;4897170;29;20516;-89
2022/12/25 08:01:18;;;;;;;38.90;6.10;;;;;;;16.87;100.00;101466.31;4884104;29;20972;-89
2022/12/25 08:04:00;;;;;;;36.90;6.50;;;;;;;16.84;100.00;101452.94;4897885;29;20892;-90
2022/12/25 08:07:11;;;;;;;33.87;5.20;;;;;;;16.88;100.00;101466.09;4876026;29;20445;-89
2022/12/25 08:09:40;;;;;;;47.40;6.07;;;;;;;16.86;100.00;101467.38;4884080;29;20452;-89
2022/12/25 08:12:10;;;;;;;36.63;8.53;;;;;;;16.88;100.00;101466.09;4884137;29;20442;-89
2022/12/25 08:14:45;;;;;;;53.40;11.77;;;;;;;16.96;100.00;101469.66;4868790;29;20967;-89
2022/12/25 08:17:30;;;;;;;41.67;13.30;;;;;;;16.97;100.00;101469.44;4868549;29;20991;-89
2022/12/25 08:20:10;;;;;;;72.37;23.93;;;;;;;17.01;100.00;101472.63;4865498;29;20452;-89
2022/12/25 08:22:38;;;;;;;72.70;32.27;;;;;;;17.01;100.00;101473.47;4880114;29;20450;-89
2022/12/25 08:25:14;;;;;;;75.53;22.20;;;;;;;17.10;100.00;101479.59;4880366;29;20451;-90
2022/12/25 08:27:52;;;;;;;58.10;16.27;;;;;;;17.09;100.00;101467.72;4897334;29;20442;-89
2022/12/25 08:30:19;;;;;;;56.13;13.87;;;;;;;17.15;100.00;101472.34;4869469;29;20452;-90
2022/12/25 08:36:37;;;;;;;52.50;11.13;;;;;;;17.30;100.00;101487.81;4899492;29;20453;-91
2022/12/25 08:39:08;;;;;;;50.07;10.03;;;;;;;17.26;100.00;101484.63;4867788;29;20474;-91
2022/12/25 08:41:36;;;;;;;50.17;9.90;;;;;;;17.41;100.00;101495.38;4898388;29;20445;-92
2022/12/25 08:44:13;;;;;;;42.77;16.10;;;;;;;17.53;100.00;101504.66;4874041;29;20528;-93
2022/12/25 08:46:47;;;;;;;41.70;13.80;;;;;;;17.61;100.00;101499.75;4883380;29;20807;-89
2022/12/25 08:49:15;;;;;;;65.47;26.70;;;;;;;17.65;100.00;101499.34;4881787;29;20454;-87
2022/12/25 08:51:44;;;;;;;47.57;17.47;;;;;;;17.74;100.00;101509.88;4853027;29;20474;-88
2022/12/25 08:54:13;;;;;;;63.33;19.73;;;;;;;17.83;100.00;101516.03;4882126;29;20992;-88
2022/12/25 08:56:42;;;;;;;45.27;16.90;;;;;;;17.86;100.00;101510.06;4867675;29;20450;-89
2022/12/25 08:59:10;;;;;;;35.73;12.27;;;;;;;17.90;100.00;101509.34;4864375;29;20516;-90
2022/12/25 09:01:38;;;;;;;51.50;13.80;;;;;;;17.99;100.00;101517.41;4864936;29;21024;-90
2022/12/25 09:04:06;;;;;;;36.60;10.67;;;;;;;18.06;100.00;101518.19;4851127;29;20451;-90
2022/12/25 09:06:36;;;;;;;38.03;9.40;;;;;;;18.10;100.00;101513.88;4867067;29;20470;-90
2022/12/25 09:09:07;;;;;;;48.43;11.57;;;;;;;18.18;100.00;101521.94;4866804;29;20470;-90
2022/12/25 09:11:35;;;;;;;67.00;33.47;;;;;;;18.19;100.00;101524.47;4879161;29;20528;-90
2022/12/25 09:14:05;;;;;;;45.57;13.60;;;;;;;18.25;100.00;101531.03;4865774;29;20435;-90
2022/12/25 09:16:34;;;;;;;41.53;14.70;;;;;;;18.38;100.00;101530.91;4866391;29;20488;-90
2022/12/25 09:19:02;;;;;;;62.73;22.70;;;;;;;18.48;100.00;101522.94;4896995;29;20581;-90
2022/12/25 09:21:35;;;;;;;51.10;19.30;;;;;;;18.69;100.00;101545.78;4851104;29;20522;-89
2022/12/25 09:24:03;;;;;;;32.70;5.63;;;;;;;18.70;100.00;101553.00;4881502;29;20807;-90
2022/12/25 09:26:41;;;;;;;20.33;2.70;;;;;;;18.52;100.00;101573.16;4851872;29;20521;-89
2022/12/25 09:29:10;;;;;;;22.30;6.20;;;;;;;18.33;100.00;101586.09;4879355;29;20484;-90
2022/12/25 09:31:38;;;;;;;73.47;26.60;;;;;;;18.16;100.00;101574.72;4866811;29;20871;-89
2022/12/25 09:34:07;;;;;;;144.53;75.70;;;;;;;18.07;100.00;101569.69;4851666;29;20449;-89
2022/12/25 09:36:43;;;;;;;176.70;86.73;;;;;;;18.10;100.00;101581.13;4798915;29;20456;-89
2022/12/25 09:39:11;;;;;;;27.07;7.30;;;;;;;18.07;100.00;101580.75;4792649;29;20544;-89
2022/12/25 09:41:47;;;;;;;21.60;11.83;;;;;;;18.03;100.00;101585.88;4836493;29;20463;-89
2022/12/25 09:44:35;;;;;;;14.33;2.30;;;;;;;18.03;100.00;101590.56;4798050;29;20455;-89
2022/12/25 09:47:10;;;;;;;12.07;1.90;;;;;;;18.00;100.00;101596.53;4798773;29;20461;-89
2022/12/25 09:49:52;;;;;;;17.27;2.63;;;;;;;18.02;100.00;101605.47;4796462;29;20452;-89
2022/12/25 09:52:24;;;;;;;8.90;1.30;;;;;;;17.94;100.00;101599.13;4826525;29;20449;-89
2022/12/25 09:55:23;;;;;;;178.53;113.33;;;;;;;17.98;100.00;101604.22;4824302;29;20565;-89
2022/12/25 09:57:53;;;;;;;18.60;10.23;;;;;;;18.03;100.00;101612.72;4844628;29;20541;-89
2022/12/25 10:00:27;;;;;;;13.77;5.03;;;;;;;18.05;100.00;101613.34;4829460;29;20460;-89
2022/12/25 10:03:18;;;;;;;12.47;1.80;;;;;;;18.04;100.00;101614.41;4844674;29;20868;-89
2022/12/25 10:06:13;;;;;;;36.57;18.13;;;;;;;18.09;100.00;101611.81;4831364;29;20465;-89
2022/12/25 10:08:50;;;;;;;50.43;28.73;;;;;;;18.17;100.00;101619.84;4831519;29;20479;-89
2022/12/25 10:11:47;;;;;;;445.17;306.47;;;;;;;18.20;100.00;101631.31;4859049;29;20450;-90
2022/12/25 10:14:27;;;;;;;44.10;25.00;;;;;;;18.26;100.00;101629.59;4859064;29;20452;-89
2022/12/25 10:17:29;;;;;;;23.50;13.13;;;;;;;18.33;100.00;101632.28;4852724;29;20990;-90
2022/12/25 10:20:33;;;;;;;12.73;6.17;;;;;;;18.35;100.00;101630.16;4861481;29;20827;-91
2022/12/25 10:26:36;;;;;;;11.03;2.90;;;;;;;18.43;100.00;101613.28;4878196;29;20450;-90
2022/12/25 10:29:18;;;;;;;9.70;2.23;;;;;;;18.49;100.00;101612.38;4854679;29;20882;-87
2022/12/25 10:31:52;;;;;;;14.00;3.40;;;;;;;18.59;100.00;101607.22;4861654;29;20981;-90
2022/12/25 10:34:27;;;;;;;14.23;3.03;;;;;;;18.68;100.00;101605.00;4874997;29;20456;-90
2022/12/25 10:37:08;;;;;;;18.83;7.47;;;;;;;18.77;100.00;101614.75;4905450;29;20476;-90
2022/12/25 10:39:36;;;;;;;18.90;5.03;;;;;;;18.77;100.00;101609.19;4908574;29;20428;-91
2022/12/25 10:42:41;;;;;;;27.07;7.30;;;;;;;18.78;100.00;101605.34;4902580;29;20441;-94
2022/12/25 10:45:41;;;;;;;22.70;8.60;;;;;;;18.84;100.00;101615.53;4877944;29;20468;-93
2022/12/25 10:59:57;;;;;;;29.23;3.60;;;;;;;19.55;100.00;101606.69;4838927;29;20486;-96
2022/12/25 11:03:06;;;;;;;35.10;4.90;;;;;;;19.72;100.00;101602.19;4862288;29;20463;-95
2022/12/25 11:06:36;;;;;;;17.40;3.60;;;;;;;19.87;100.00;101597.09;4876627;29;20540;-95
2022/12/25 11:09:46;;;;;;;17.83;3.20;;;;;;;19.88;100.00;101589.59;4862623;29;20531;-95
2022/12/25 11:20:26;;;;;;;29.83;4.67;;;;;;;20.17;100.00;101590.69;4859764;29;20479;-95
2022/12/25 11:23:28;;;;;;;19.57;2.97;;;;;;;20.12;100.00;101590.56;4855661;29;20955;-95
2022/12/25 11:34:21;;;;;;;16.80;2.87;;;;;;;20.28;100.00;101578.75;4901464;29;20446;-95
2022/12/25 11:45:10;;;;;;;13.70;2.43;;;;;;;20.71;100.00;101566.56;4808149;29;20471;-94
2022/12/25 11:48:02;;;;;;;22.73;3.20;;;;;;;20.99;100.00;101561.09;4805969;29;20454;-91
2022/12/25 11:51:01;;;;;;;11.93;2.30;;;;;;;21.22;100.00;101551.91;4795719;29;20454;-92
2022/12/25 11:53:58;;;;;;;21.00;3.20;;;;;;;21.55;100.00;101551.25;4804096;29;20465;-91
2022/12/25 11:56:35;;;;;;;18.40;2.80;;;;;;;21.66;100.00;101542.84;4808255;29;20449;-93
2022/12/25 11:59:12;;;;;;;15.40;3.47;;;;;;;21.66;100.00;101534.50;4807420;29;20498;-89
2022/12/25 12:02:32;;;;;;;12.80;2.80;;;;;;;21.70;100.00;101537.63;4818911;29;20497;-90
2022/12/25 12:05:33;;;;;;;37.30;4.60;;;;;;;21.71;100.00;101529.03;4826205;29;20456;-91
2022/12/25 12:08:02;;;;;;;28.00;3.33;;;;;;;21.77;100.00;101521.59;4848941;29;20479;-90
2022/12/25 12:10:41;;;;;;;19.27;3.70;;;;;;;21.80;100.00;101523.06;4903138;29;20445;-91
2022/12/25 12:13:39;;;;;;;19.00;3.37;;;;;;;21.80;100.00;101521.13;4879435;29;20488;-88
2022/12/25 12:16:10;;;;;;;22.30;3.17;;;;;;;21.76;100.00;101514.34;4900029;29;20816;-90
2022/12/25 12:18:38;;;;;;;24.80;3.70;;;;;;;21.69;100.00;101508.97;4867852;29;20613;-88
2022/12/25 12:21:28;;;;;;;21.30;2.70;;;;;;;21.67;100.00;101510.31;4884156;29;20504;-92
2022/12/25 12:24:15;;;;;;;18.73;2.97;;;;;;;21.77;100.00;101516.03;4882956;29;20445;-89
2022/12/25 12:26:45;;;;;;;32.77;6.13;;;;;;;21.88;100.00;101505.97;4880215;29;20462;-90
2022/12/25 12:29:25;;;;;;;23.93;5.60;;;;;;;21.98;100.00;101508.91;4872229;29;20528;-89
2022/12/25 12:31:54;;;;;;;24.27;6.43;;;;;;;22.06;100.00;101502.97;4886666;29;20448;-90
2022/12/25 12:34:27;;;;;;;26.47;5.23;;;;;;;22.04;100.00;101483.75;4871730;29;20463;-89
2022/12/25 12:37:34;;;;;;;22.33;2.93;;;;;;;22.01;100.00;101495.38;4887314;29;20448;-90
2022/12/25 12:40:06;;;;;;;25.10;4.10;;;;;;;21.84;100.00;101494.47;4918746;29;20453;-91
2022/12/25 12:42:45;;;;;;;52.23;21.27;;;;;;;21.72;100.00;101496.50;4871624;29;20453;-90
2022/12/25 12:45:18;;;;;;;28.17;12.70;;;;;;;21.57;100.00;101496.16;4869589;29;20455;-92
2022/12/25 12:47:51;;;;;;;39.60;12.80;;;;;;;21.42;100.00;101495.88;4853246;29;21008;-92
2022/12/25 12:50:39;;;;;;;33.30;10.33;;;;;;;21.18;100.00;101467.25;4865598;29;20451;-91
2022/12/25 12:53:37;;;;;;;30.67;8.50;;;;;;;21.15;100.00;101479.75;4867502;29;20946;-91
2022/12/25 12:56:14;;;;;;;27.10;7.30;;;;;;;20.96;100.00;101472.66;4883349;29;20469;-91
2022/12/25 12:59:23;;;;;;;21.00;5.00;;;;;;;20.97;100.00;101477.94;4857305;29;20487;-90
2022/12/25 13:05:44;;;;;;;16.37;2.80;;;;;;;20.72;100.00;101474.63;4911001;29;20459;-91
2022/12/25 13:12:06;;;;;;;31.93;6.80;;;;;;;20.33;100.00;101465.91;4899332;29;20468;-92
2022/12/25 13:14:36;;;;;;;25.80;4.60;;;;;;;20.29;100.00;101470.25;4882944;29;20960;-91
2022/12/25 13:17:06;;;;;;;19.43;3.30;;;;;;;20.29;100.00;101459.13;4882949;29;20454;-90
2022/12/25 13:19:33;;;;;;;33.73;4.20;;;;;;;20.38;100.00;101456.91;4852731;29;20489;-90
2022/12/25 13:22:23;;;;;;;21.00;3.23;;;;;;;20.29;100.00;101439.72;4867870;29;20545;-90
2022/12/25 13:25:05;;;;;;;25.40;4.17;;;;;;;20.15;100.00;101507.66;4854452;29;20441;-90
2022/12/25 13:27:37;;;;;;;23.07;2.57;;;;;;;19.83;100.00;101504.28;4898351;29;20956;-89
2022/12/25 13:30:14;;;;;;;9.57;2.83;;;;;;;19.54;100.00;101500.47;4882648;29;20438;-90
2022/12/25 13:32:44;;;;;;;14.30;2.40;;;;;;;19.36;100.00;101488.53;4852525;29;20446;-90
2022/12/25 13:35:14;;;;;;;11.60;2.30;;;;;;;19.27;100.00;101499.09;4867428;29;20464;-90
2022/12/25 13:37:46;;;;;;;10.00;1.63;;;;;;;19.22;100.00;101483.19;4852617;29;20454;-91
2022/12/25 13:40:21;;;;;;;7.90;1.57;;;;;;;19.20;100.00;101482.56;4867949;29;20532;-91
2022/12/25 13:42:49;;;;;;;6.90;1.87;;;;;;;19.21;100.00;101480.63;4907635;29;20425;-90
2022/12/25 13:45:24;;;;;;;10.93;2.23;;;;;;;19.30;100.00;101482.84;4868009;29;20438;-89
2022/12/25 13:47:52;;;;;;;9.13;2.30;;;;;;;19.41;100.00;101466.50;4868334;29;20446;-90
2022/12/25 13:50:32;;;;;;;7.00;1.67;;;;;;;19.67;100.00;101458.66;4868042;29;20449;-90
2022/12/25 13:53:17;;;;;;;7.10;1.53;;;;;;;19.95;100.00;101451.63;4867422;29;20426;-89
2022/12/25 13:55:52;;;;;;;7.13;1.10;;;;;;;20.06;100.00;101447.16;4868562;29;20450;-90
2022/12/25 13:58:30;;;;;;;9.40;1.60;;;;;;;20.05;100.00;101440.75;4882107;29;20485;-89
2022/12/25 14:01:00;;;;;;;9.50;1.40;;;;;;;20.16;100.00;101448.28;4851632;29;20446;-90
2022/12/25 14:03:41;;;;;;;8.93;1.37;;;;;;;20.26;100.00;101459.63;4867030;29;20442;-90
2022/12/25 14:06:25;;;;;;;6.67;0.97;;;;;;;20.34;100.00;101455.66;4867159;29;20965;-89
2022/12/25 14:08:54;;;;;;;11.73;1.47;;;;;;;20.35;100.00;101462.91;4884828;29;20548;-89
2022/12/25 14:11:25;;;;;;;4.43;1.50;;;;;;;20.31;100.00;101456.97;4886256;29;20794;-89
2022/12/25 14:14:00;;;;;;;7.27;1.07;;;;;;;20.30;100.00;101462.75;4871087;29;20456;-89
2022/12/25 14:16:30;;;;;;;7.23;0.90;;;;;;;20.28;100.00;101462.16;4855603;29;20491;-90
2022/12/25 14:19:19;;;;;;;8.23;1.07;;;;;;;20.27;100.00;101477.13;4856044;29;20536;-90
2022/12/25 14:22:22;;;;;;;7.37;1.00;;;;;;;20.18;100.00;101478.56;4885787;29;20441;-90
2022/12/25 14:24:49;;;;;;;7.40;1.00;;;;;;;20.10;100.00;101473.38;4869671;29;20455;-90
2022/12/25 14:27:25;;;;;;;6.73;1.30;;;;;;;20.09;100.00;101480.00;4887645;29;20512;-90
2022/12/25 14:30:15;;;;;;;7.83;1.27;;;;;;;20.12;100.00;101483.16;4889673;29;20468;-90
2022/12/25 14:33:13;;;;;;;10.93;1.27;;;;;;;20.23;100.00;101484.22;4888435;29;20446;-89
2022/12/25 14:35:41;;;;;;;7.70;1.10;;;;;;;20.25;100.00;101484.84;4886595;29;20445;-89
2022/12/25 14:38:33;;;;;;;4.50;0.93;;;;;;;20.24;100.00;101483.16;4855033;29;20444;-89
2022/12/25 14:41:04;;;;;;;7.63;0.87;;;;;;;20.28;100.00;101488.00;4870105;29;20957;-89
2022/12/25 14:43:37;;;;;;;11.40;1.27;;;;;;;20.30;100.00;101488.59;4870699;29;20460;-90
2022/12/25 14:46:06;;;;;;;7.87;0.97;;;;;;;20.35;100.00;101485.97;4886515;29;20456;-89
2022/12/25 14:48:37;;;;;;;7.73;1.20;;;;;;;20.34;100.00;101489.81;4870859;29;20453;-90
2022/12/25 14:51:15;;;;;;;12.00;0.77;;;;;;;20.23;99.46;101481.47;4870254;29;20645;-90
2022/12/25 14:53:59;;;;;;;4.50;0.53;;;;;;;20.42;98.77;101491.41;4885579;29;20548;-90
2022/12/25 14:56:28;;;;;;;3.87;0.60;;;;;;;20.44;97.58;101480.91;4887215;29;20438;-89
2022/12/25 14:59:08;;;;;;;3.47;0.73;;;;;;;20.42;95.63;101480.28;4856170;29;20846;-90
2022/12/25 15:01:38;;;;;;;2.60;0.50;;;;;;;20.41;95.95;101478.59;4870495;29;20517;-90
2022/12/25 15:04:13;;;;;;;1.47;0.40;;;;;;;20.46;94.53;101486.22;4885381;29;20444;-90